Auburn, Indiana
Current Conditions -  °F | °C
As of 9:15 AM on Sunday 25 Jan 2015 (Local Time) from KGWB Reporting Station
Haze Haze  
Wind Chill: -4°   Ceiling: 400
Heat Index:   Visibility: 2.5mi
Dew Point:   Wind: 13mph
Humidity: 93%   Direction: 70°ENE
Pressure: 29.75"   Gusts: NA
Location:  41.37°N, 85.05°W
Report Text: KGWB 251415Z AUTO 07011KT 2 1/2SM BR OVC004 01/00 A2975 RMK AO2
Loading
Personal Weather Stations






























Interactive Weather Map New forecast layout! Learn more

10-Day Weather Forecast

Advertisements
Track Severe Weather on mobile